createdAt,value
2017-10-15T00:00:48.398Z,101356.73
2017-10-15T00:03:15.799Z,101358.08
2017-10-15T00:05:43.234Z,101356.01
2017-10-15T00:08:11.033Z,101352.17
2017-10-15T00:10:38.437Z,101349.19
2017-10-15T00:13:05.885Z,101349.59
2017-10-15T00:15:33.286Z,101353.00
2017-10-15T00:18:00.742Z,101350.62
2017-10-15T00:20:28.185Z,101349.70
2017-10-15T00:22:55.570Z,101357.22
2017-10-15T00:25:22.969Z,101351.36
2017-10-15T00:27:50.412Z,101349.39
2017-10-15T00:30:17.818Z,101349.48
2017-10-15T00:32:45.252Z,101353.13
2017-10-15T00:35:12.661Z,101348.99
2017-10-15T00:37:40.092Z,101354.17
2017-10-15T00:40:07.505Z,101352.72
2017-10-15T00:42:34.908Z,101357.36
2017-10-15T00:45:02.354Z,101349.01
2017-10-15T00:47:29.758Z,101348.52
2017-10-15T00:49:57.180Z,101346.22
2017-10-15T00:52:24.586Z,101351.39
2017-10-15T00:54:52.064Z,101350.36
2017-10-15T00:57:19.478Z,101344.91
2017-10-15T00:59:46.885Z,101345.00
2017-10-15T01:02:14.277Z,101342.63
2017-10-15T01:04:41.686Z,101348.72
2017-10-15T01:07:09.134Z,101348.09
2017-10-15T01:09:36.522Z,101345.61
2017-10-15T01:12:03.949Z,101348.41
2017-10-15T01:14:31.362Z,101352.02
2017-10-15T01:16:58.794Z,101349.02
2017-10-15T01:19:26.219Z,101351.31
2017-10-15T01:21:53.637Z,101348.83
2017-10-15T01:24:21.034Z,101344.80
2017-10-15T01:26:48.454Z,101347.60
2017-10-15T01:29:15.902Z,101340.59
2017-10-15T01:31:43.269Z,101338.64
2017-10-15T01:34:10.690Z,101338.72
2017-10-15T01:36:38.102Z,101335.11
2017-10-15T01:39:05.498Z,101330.28
2017-10-15T01:41:32.954Z,101331.63
2017-10-15T01:44:00.330Z,101327.98
2017-10-15T01:46:27.769Z,101330.06
2017-10-15T01:48:55.207Z,101332.97
2017-10-15T01:51:22.606Z,101331.70
2017-10-15T01:53:50.025Z,101327.06
2017-10-15T01:56:17.486Z,101327.98
2017-10-15T01:58:44.917Z,101329.86
2017-10-15T02:01:12.348Z,101327.48
2017-10-15T02:03:39.752Z,101327.57
2017-10-15T02:06:07.168Z,101317.18
2017-10-15T02:08:34.554Z,101323.66
2017-10-15T02:11:01.983Z,101316.95
2017-10-15T02:13:29.358Z,101321.59
2017-10-15T02:15:56.769Z,101315.84
2017-10-15T02:18:24.205Z,101320.48
2017-10-15T02:20:51.611Z,101318.41
2017-10-15T02:23:19.001Z,101311.70
2017-10-15T02:25:46.443Z,101311.82
2017-10-15T02:28:13.838Z,101308.61
2017-10-15T02:30:41.248Z,101311.70
2017-10-15T02:33:08.650Z,101313.23
2017-10-15T02:35:36.061Z,101310.86
2017-10-15T02:38:03.498Z,101311.09
2017-10-15T02:40:30.912Z,101311.48
2017-10-15T02:42:58.324Z,101310.25
2017-10-15T02:45:25.775Z,101308.72
2017-10-15T02:47:53.202Z,101308.71
2017-10-15T02:50:21.138Z,101309.94
2017-10-15T02:52:48.572Z,101312.01
2017-10-15T02:55:15.994Z,101314.69
2017-10-15T02:57:43.417Z,101310.25
2017-10-15T03:00:10.825Z,101306.34
2017-10-15T03:02:38.247Z,101306.45
2017-10-15T03:05:05.691Z,101305.73
2017-10-15T03:07:33.079Z,101301.40
2017-10-15T03:10:00.556Z,101305.42
2017-10-15T03:12:27.991Z,101308.72
2017-10-15T03:14:55.385Z,101311.39
2017-10-15T03:17:22.801Z,101314.70
2017-10-15T03:19:50.219Z,101310.89
2017-10-15T03:22:17.625Z,101311.20
2017-10-15T03:24:45.390Z,101309.13
2017-10-15T03:27:12.786Z,101306.95
2017-10-15T03:29:40.197Z,101309.13
2017-10-15T03:32:07.757Z,101306.22
2017-10-15T03:34:35.146Z,101316.45
2017-10-15T03:37:02.602Z,101311.20
2017-10-15T03:39:30.051Z,101311.50
2017-10-15T03:41:57.463Z,101315.72
2017-10-15T03:44:24.858Z,101311.92
2017-10-15T03:46:52.286Z,101307.48
2017-10-15T03:49:19.691Z,101302.30
2017-10-15T03:51:47.085Z,101298.09
2017-10-15T03:54:14.521Z,101304.79
2017-10-15T03:56:41.913Z,101303.14
2017-10-15T03:59:09.317Z,101304.59
2017-10-15T04:01:36.726Z,101306.92
2017-10-15T04:04:04.171Z,101313.39
2017-10-15T04:06:31.594Z,101313.70
2017-10-15T04:08:59.018Z,101312.58
2017-10-15T04:11:26.430Z,101312.88
2017-10-15T04:13:53.818Z,101311.23
2017-10-15T04:16:21.244Z,101316.77
2017-10-15T04:18:48.659Z,101311.33
2017-10-15T04:21:16.075Z,101309.77
2017-10-15T04:23:43.497Z,101312.74
2017-10-15T04:26:10.943Z,101311.81
2017-10-15T04:28:38.650Z,101311.39
2017-10-15T04:31:06.072Z,101316.14
2017-10-15T04:33:33.470Z,101310.77
2017-10-15T04:36:00.899Z,101309.55
2017-10-15T04:38:28.310Z,101304.30
2017-10-15T04:40:55.718Z,101314.36
2017-10-15T04:43:23.146Z,101310.45
2017-10-15T04:45:50.562Z,101309.55
2017-10-15T04:48:17.986Z,101309.23
2017-10-15T04:50:45.377Z,101306.25
2017-10-15T04:53:12.802Z,101308.51
2017-10-15T04:55:40.482Z,101312.43
2017-10-15T04:58:07.910Z,101308.11
2017-10-15T05:00:35.352Z,101307.07
2017-10-15T05:03:02.738Z,101311.39
2017-10-15T05:05:30.158Z,101309.64
2017-10-15T05:08:02.161Z,101317.05
2017-10-15T05:10:29.592Z,101312.40
2017-10-15T05:12:56.985Z,101310.86
2017-10-15T05:15:24.437Z,101306.64
2017-10-15T05:17:51.885Z,101310.24
2017-10-15T05:20:19.266Z,101311.05
2017-10-15T05:22:46.691Z,101312.50
2017-10-15T05:25:14.117Z,101305.99
2017-10-15T05:27:41.521Z,101309.62
2017-10-15T05:30:08.927Z,101308.47
2017-10-15T05:32:36.353Z,101305.59
2017-10-15T05:35:03.793Z,101308.46
2017-10-15T05:37:31.219Z,101313.34
2017-10-15T05:39:58.734Z,101308.17
2017-10-15T05:42:26.146Z,101310.85
2017-10-15T05:44:53.557Z,101314.67
2017-10-15T05:47:20.950Z,101304.98
2017-10-15T05:49:48.343Z,101312.29
2017-10-15T05:52:15.822Z,101305.27
2017-10-15T05:54:43.209Z,101303.95
2017-10-15T05:57:10.621Z,101299.81
2017-10-15T05:59:38.054Z,101305.97
2017-10-15T06:02:05.446Z,101300.54
2017-10-15T06:04:32.853Z,101297.94
2017-10-15T06:07:00.263Z,101296.10
2017-10-15T06:09:27.665Z,101292.50
2017-10-15T06:11:55.081Z,101295.28
2017-10-15T06:14:22.546Z,101302.39
2017-10-15T06:16:49.925Z,101304.16
2017-10-15T06:19:17.314Z,101306.02
2017-10-15T06:21:44.746Z,101300.34
2017-10-15T06:24:13.344Z,101304.08
2017-10-15T06:26:40.787Z,101304.37
2017-10-15T06:29:08.254Z,101306.86
2017-10-15T06:31:35.680Z,101302.44
2017-10-15T06:34:03.081Z,101302.74
2017-10-15T06:36:30.498Z,101301.10
2017-10-15T06:38:57.898Z,101302.94
2017-10-15T06:41:25.290Z,101301.52
2017-10-15T06:43:52.694Z,101308.00
2017-10-15T06:46:23.221Z,101303.59
2017-10-15T06:48:50.607Z,101304.41
2017-10-15T06:51:18.017Z,101299.78
2017-10-15T06:53:45.421Z,101306.06
2017-10-15T06:56:12.823Z,101314.41
2017-10-15T06:58:40.229Z,101303.69
2017-10-15T07:01:07.617Z,101305.58
2017-10-15T07:03:35.010Z,101299.57
2017-10-15T07:06:02.487Z,101298.88
2017-10-15T07:08:29.878Z,101301.22
2017-10-15T07:10:57.278Z,101302.48
2017-10-15T07:13:24.700Z,101301.66
2017-10-15T07:15:52.085Z,101299.23
2017-10-15T07:18:19.481Z,101301.50
2017-10-15T07:20:46.897Z,101307.59
2017-10-15T07:23:14.295Z,101311.81
2017-10-15T07:25:41.686Z,101313.16
2017-10-15T07:28:09.095Z,101315.42
2017-10-15T07:30:36.489Z,101314.27
2017-10-15T07:33:03.900Z,101316.03
2017-10-15T07:35:31.309Z,101309.64
2017-10-15T07:37:58.694Z,101307.15
2017-10-15T07:40:26.087Z,101304.27
2017-10-15T07:42:54.438Z,101308.80
2017-10-15T07:45:21.830Z,101304.77
2017-10-15T07:47:49.230Z,101306.33
2017-10-15T07:50:16.640Z,101310.54
2017-10-15T07:52:44.058Z,101307.64
2017-10-15T07:55:11.517Z,101306.98
2017-10-15T07:57:38.958Z,101304.89
2017-10-15T08:00:06.451Z,101303.21
2017-10-15T08:02:33.866Z,101309.62
2017-10-15T08:05:01.291Z,101313.00
2017-10-15T08:07:28.719Z,101304.80
2017-10-15T08:09:56.114Z,101305.46
2017-10-15T08:12:23.523Z,101301.17
2017-10-15T08:14:50.910Z,101296.77
2017-10-15T08:17:18.340Z,101286.38
2017-10-15T08:19:45.786Z,101289.81
2017-10-15T08:22:13.205Z,101286.77
2017-10-15T08:24:40.646Z,101286.38
2017-10-15T08:27:08.157Z,101287.26
2017-10-15T08:29:35.635Z,101290.94
2017-10-15T08:32:03.074Z,101295.86
2017-10-15T08:34:30.504Z,101297.08
2017-10-15T08:36:57.959Z,101299.07
2017-10-15T08:39:25.334Z,101293.70
2017-10-15T08:41:52.746Z,101294.00
2017-10-15T08:44:20.222Z,101291.97
2017-10-15T08:46:48.533Z,101292.20
2017-10-15T08:49:16.521Z,101288.19
2017-10-15T08:51:43.930Z,101293.91
2017-10-15T08:54:12.252Z,101301.31
2017-10-15T08:56:40.558Z,101301.50
2017-10-15T08:59:08.178Z,101300.73
2017-10-15T09:01:36.339Z,101299.75
2017-10-15T09:04:03.830Z,101300.52
2017-10-15T09:06:31.990Z,101291.23
2017-10-15T09:09:00.214Z,101295.95
2017-10-15T09:11:27.710Z,101294.47
2017-10-15T09:13:55.275Z,101291.63
2017-10-15T09:16:23.424Z,101300.16
2017-10-15T09:18:51.643Z,101291.57
2017-10-15T09:21:19.030Z,101291.63
2017-10-15T09:23:46.457Z,101285.80
2017-10-15T09:26:14.775Z,101283.34
2017-10-15T09:28:43.269Z,101276.44
2017-10-15T09:31:11.303Z,101278.84
2017-10-15T09:33:38.714Z,101271.75
2017-10-15T09:36:06.114Z,101277.77
2017-10-15T09:38:33.539Z,101273.39
2017-10-15T09:41:00.929Z,101269.12
2017-10-15T09:43:28.356Z,101274.19
2017-10-15T09:45:55.773Z,101262.82
2017-10-15T09:48:23.210Z,101268.27
2017-10-15T09:50:50.646Z,101261.23
2017-10-15T09:53:18.058Z,101259.23
2017-10-15T09:55:45.465Z,101262.53
2017-10-15T09:58:12.863Z,101246.69
2017-10-15T10:00:40.305Z,101241.66
2017-10-15T10:03:07.807Z,101239.89
2017-10-15T10:05:35.218Z,101238.64
2017-10-15T10:08:02.617Z,101233.53
2017-10-15T10:10:30.052Z,101233.60
2017-10-15T10:12:57.466Z,101233.78
2017-10-15T10:15:24.863Z,101230.69
2017-10-15T10:17:52.275Z,101234.67
2017-10-15T10:20:19.670Z,101237.36
2017-10-15T10:22:47.106Z,101230.22
2017-10-15T10:25:14.586Z,101229.81
2017-10-15T10:27:41.977Z,101229.98
2017-10-15T10:30:09.371Z,101222.63
2017-10-15T10:32:38.742Z,101228.09
2017-10-15T10:35:06.165Z,101229.30
2017-10-15T10:37:33.562Z,101226.13
2017-10-15T10:40:00.974Z,101225.56
2017-10-15T10:42:28.382Z,101217.86
2017-10-15T10:44:55.824Z,101213.93
2017-10-15T10:47:23.212Z,101215.10
2017-10-15T10:49:50.609Z,101217.55
2017-10-15T10:52:18.023Z,101214.85
2017-10-15T10:54:45.734Z,101212.31
2017-10-15T10:57:13.127Z,101206.30
2017-10-15T10:59:40.510Z,101201.33
2017-10-15T11:02:07.955Z,101204.64
2017-10-15T11:04:50.500Z,101202.63
2017-10-15T11:07:17.909Z,101197.05
2017-10-15T11:09:45.369Z,101192.20
2017-10-15T11:12:12.770Z,101189.25
2017-10-15T11:14:40.246Z,101187.08
2017-10-15T11:17:07.663Z,101178.63
2017-10-15T11:19:35.098Z,101174.94
2017-10-15T11:22:02.521Z,101176.56
2017-10-15T11:24:29.955Z,101172.30
2017-10-15T11:26:57.398Z,101169.02
2017-10-15T11:29:24.855Z,101166.39
2017-10-15T11:31:52.281Z,101168.46
2017-10-15T11:34:19.689Z,101163.39
2017-10-15T11:36:47.106Z,101154.50
2017-10-15T11:39:14.520Z,101158.02
2017-10-15T11:41:41.937Z,101146.73
2017-10-15T11:44:09.347Z,101150.70
2017-10-15T11:46:36.765Z,101147.38
2017-10-15T11:49:04.183Z,101143.78
2017-10-15T11:51:31.574Z,101130.91
2017-10-15T11:53:58.979Z,101140.19
2017-10-15T11:56:26.370Z,101136.08
2017-10-15T11:58:53.821Z,101126.19
2017-10-15T12:01:21.222Z,101121.78
2017-10-15T12:03:48.641Z,101124.90
2017-10-15T12:06:16.049Z,101120.22
2017-10-15T12:08:43.486Z,101120.77
2017-10-15T12:11:10.885Z,101115.50
2017-10-15T12:13:38.301Z,101118.61
2017-10-15T12:16:05.740Z,101113.03
2017-10-15T12:18:33.166Z,101104.20
2017-10-15T12:21:00.591Z,101104.41
2017-10-15T12:23:28.011Z,101100.53
2017-10-15T12:25:55.419Z,101095.17
2017-10-15T12:28:22.827Z,101093.34
2017-10-15T12:30:50.222Z,101086.59
2017-10-15T12:33:17.610Z,101089.71
2017-10-15T12:35:45.019Z,101088.77
2017-10-15T12:38:12.410Z,101085.34
2017-10-15T12:40:39.802Z,101082.73
2017-10-15T12:43:07.218Z,101082.50
2017-10-15T12:45:34.606Z,101083.09
2017-10-15T12:48:02.001Z,101078.94
2017-10-15T12:50:29.405Z,101074.70
2017-10-15T12:52:56.789Z,101075.42
2017-10-15T12:55:24.182Z,101074.23
2017-10-15T12:57:51.605Z,101067.48
2017-10-15T13:00:18.993Z,101070.80
2017-10-15T13:02:46.391Z,101066.58
2017-10-15T13:05:13.802Z,101062.98
2017-10-15T13:07:41.198Z,101068.39
2017-10-15T13:10:08.590Z,101060.11
2017-10-15T13:12:36.913Z,101064.34
2017-10-15T13:15:04.826Z,101058.97
2017-10-15T13:17:32.214Z,101052.31
2017-10-15T13:19:59.652Z,101053.05
2017-10-15T13:22:27.113Z,101051.33
2017-10-15T13:24:54.506Z,101048.84
2017-10-15T13:27:21.928Z,101044.48
2017-10-15T13:29:49.314Z,101043.87
2017-10-15T13:32:16.706Z,101040.78
2017-10-15T13:34:44.127Z,101034.27
2017-10-15T13:37:11.996Z,101031.33
2017-10-15T13:39:41.014Z,101036.00
2017-10-15T13:42:08.430Z,101030.63
2017-10-15T13:44:36.938Z,101032.87
2017-10-15T13:47:04.322Z,101029.09
2017-10-15T13:49:31.737Z,101025.17
2017-10-15T13:52:00.142Z,101026.80
2017-10-15T13:54:27.541Z,101021.22
2017-10-15T13:56:54.961Z,101026.39
2017-10-15T13:59:22.355Z,101017.84
2017-10-15T14:01:49.775Z,101017.33
2017-10-15T14:04:17.170Z,101022.73
2017-10-15T14:06:44.561Z,101024.33
2017-10-15T14:09:11.954Z,101022.76
2017-10-15T14:11:39.453Z,101025.13
2017-10-15T14:14:06.826Z,101019.80
2017-10-15T14:16:34.227Z,101016.81
2017-10-15T14:19:01.643Z,101017.66
2017-10-15T14:21:29.034Z,101020.06
2017-10-15T14:23:56.434Z,101016.63
2017-10-15T14:26:23.844Z,101013.30
2017-10-15T14:28:51.238Z,101015.64
2017-10-15T14:31:18.634Z,101016.44
2017-10-15T14:33:46.054Z,101009.33
2017-10-15T14:36:13.450Z,101005.65
2017-10-15T14:38:40.846Z,101003.69
2017-10-15T14:41:08.408Z,101002.85
2017-10-15T14:43:35.798Z,100995.20
2017-10-15T14:46:03.194Z,100999.62
2017-10-15T14:48:30.598Z,100992.82
2017-10-15T14:50:58.002Z,100987.27
2017-10-15T14:53:25.398Z,100985.13
2017-10-15T14:55:52.815Z,100987.62
2017-10-15T14:58:20.233Z,100989.72
2017-10-15T15:00:47.607Z,100980.08
2017-10-15T15:03:15.458Z,100978.14
2017-10-15T15:05:42.850Z,100976.30
2017-10-15T15:08:10.279Z,100973.05
2017-10-15T15:10:37.686Z,100969.91
2017-10-15T15:13:05.084Z,100964.08
2017-10-15T15:15:32.521Z,100965.72
2017-10-15T15:17:59.937Z,100967.55
2017-10-15T15:20:27.334Z,100969.63
2017-10-15T15:22:54.742Z,100964.19
2017-10-15T15:25:22.173Z,100962.31
2017-10-15T15:27:49.570Z,100966.59
2017-10-15T15:30:16.994Z,100963.64
2017-10-15T15:32:44.422Z,100957.81
2017-10-15T15:35:12.706Z,100958.25
2017-10-15T15:37:40.128Z,100957.91
2017-10-15T15:40:07.634Z,100959.00
2017-10-15T15:42:35.033Z,100958.49
2017-10-15T15:45:02.415Z,100964.79
2017-10-15T15:47:29.839Z,100969.27
2017-10-15T15:49:57.254Z,100974.98
2017-10-15T15:52:24.659Z,100978.14
2017-10-15T15:54:52.086Z,100973.13
2017-10-15T15:57:19.550Z,100976.67
2017-10-15T15:59:46.959Z,100978.70
2017-10-15T16:02:14.368Z,100978.31
2017-10-15T16:04:41.798Z,100976.79
2017-10-15T16:07:09.522Z,100979.89
2017-10-15T16:09:36.974Z,100977.16
2017-10-15T16:12:05.171Z,100978.77
2017-10-15T16:14:41.061Z,100972.09
2017-10-15T16:17:08.905Z,100974.62
2017-10-15T16:19:38.284Z,100972.39
2017-10-15T16:22:06.830Z,100979.13
2017-10-15T16:27:37.066Z,100971.92
2017-10-15T16:30:04.489Z,100982.59
2017-10-15T16:32:32.814Z,100981.33
2017-10-15T16:35:02.964Z,100978.57
2017-10-15T16:37:31.001Z,100983.47
2017-10-15T16:39:58.408Z,100985.58
2017-10-15T16:42:25.839Z,100981.84
2017-10-15T16:44:53.255Z,100986.64
2017-10-15T16:47:20.634Z,100990.38
2017-10-15T16:49:48.055Z,100990.06
2017-10-15T16:52:15.487Z,100991.11
2017-10-15T16:54:42.879Z,100992.25
2017-10-15T16:57:10.285Z,100988.26
2017-10-15T16:59:37.710Z,100985.89
2017-10-15T17:02:05.151Z,100986.87
2017-10-15T17:04:32.611Z,100982.45
2017-10-15T17:07:00.042Z,100995.20
2017-10-15T17:09:27.777Z,100990.69
2017-10-15T17:11:55.511Z,100996.26
2017-10-15T17:14:22.894Z,101004.84
2017-10-15T17:16:50.336Z,100995.80
2017-10-15T17:19:17.758Z,100998.97
2017-10-15T17:21:45.159Z,100999.62
2017-10-15T17:24:12.580Z,101003.67
2017-10-15T17:26:39.981Z,101002.37
2017-10-15T17:29:07.401Z,101006.29
2017-10-15T17:31:34.793Z,101015.76
2017-10-15T17:34:02.218Z,101013.23
2017-10-15T17:36:29.638Z,101020.93
2017-10-15T17:38:57.138Z,101018.43
2017-10-15T17:41:24.627Z,101016.42
2017-10-15T17:43:52.023Z,101017.08
2017-10-15T17:46:19.418Z,101025.58
2017-10-15T17:48:46.863Z,101018.80
2017-10-15T17:51:14.287Z,101019.36
2017-10-15T17:53:41.695Z,101019.42
2017-10-15T17:56:09.126Z,101018.30
2017-10-15T17:58:36.526Z,101023.85
2017-10-15T18:01:03.943Z,101026.77
2017-10-15T18:03:31.352Z,101027.42
2017-10-15T18:05:58.793Z,101025.59
2017-10-15T18:08:26.198Z,101026.09
2017-10-15T18:10:53.644Z,101027.44
2017-10-15T18:13:21.042Z,101033.23
2017-10-15T18:15:48.457Z,101032.02
2017-10-15T18:18:15.908Z,101033.66
2017-10-15T18:20:43.321Z,101031.27
2017-10-15T18:23:10.765Z,101035.54
2017-10-15T18:25:38.185Z,101031.93
2017-10-15T18:28:05.606Z,101036.01
2017-10-15T18:30:33.004Z,101040.23
2017-10-15T18:33:01.410Z,101038.13
2017-10-15T18:35:28.807Z,101040.87
2017-10-15T18:37:56.242Z,101034.84
2017-10-15T18:40:23.666Z,101036.92
2017-10-15T18:42:51.082Z,101039.34
2017-10-15T18:45:18.474Z,101039.81
2017-10-15T18:47:45.922Z,101036.48
2017-10-15T18:50:13.325Z,101033.85
2017-10-15T18:52:40.750Z,101047.21
2017-10-15T18:55:08.193Z,101044.68
2017-10-15T18:57:35.614Z,101041.94
2017-10-15T19:00:03.046Z,101042.68
2017-10-15T19:02:30.495Z,101041.02
2017-10-15T19:04:57.886Z,101042.38
2017-10-15T19:07:25.320Z,101044.02
2017-10-15T19:09:52.738Z,101046.75
2017-10-15T19:12:20.179Z,101045.66
2017-10-15T19:14:47.560Z,101042.67
2017-10-15T19:17:15.021Z,101041.69
2017-10-15T19:19:42.419Z,101049.55
2017-10-15T19:22:09.806Z,101048.23
2017-10-15T19:24:37.242Z,101044.93
2017-10-15T19:27:04.657Z,101048.88
2017-10-15T19:29:32.057Z,101050.77
2017-10-15T19:31:59.599Z,101046.59
2017-10-15T19:34:26.991Z,101049.32
2017-10-15T19:36:54.383Z,101055.36
2017-10-15T19:39:21.821Z,101052.11
2017-10-15T19:41:49.198Z,101049.61
2017-10-15T19:44:16.590Z,101051.73
2017-10-15T19:46:43.998Z,101053.20
2017-10-15T19:49:11.470Z,101049.91
2017-10-15T19:51:38.866Z,101053.56
2017-10-15T19:54:06.290Z,101063.30
2017-10-15T19:56:33.670Z,101071.31
2017-10-15T19:59:01.062Z,101071.88
2017-10-15T20:01:28.481Z,101068.22
2017-10-15T20:03:56.201Z,101072.47
2017-10-15T20:06:23.595Z,101078.04
2017-10-15T20:08:51.012Z,101079.31
2017-10-15T20:11:18.385Z,101081.95
2017-10-15T20:13:45.777Z,101086.12
2017-10-15T20:16:13.201Z,101092.78
2017-10-15T20:18:40.589Z,101092.08
2017-10-15T20:21:07.989Z,101087.84
2017-10-15T20:23:35.413Z,101093.41
2017-10-15T20:26:03.214Z,101093.28
2017-10-15T20:28:30.605Z,101096.39
2017-10-15T20:30:58.014Z,101090.93
2017-10-15T20:33:25.400Z,101087.18
2017-10-15T20:35:52.789Z,101089.29
2017-10-15T20:38:20.195Z,101082.55
2017-10-15T20:40:47.583Z,101085.55
2017-10-15T20:43:14.973Z,101082.80
2017-10-15T20:45:42.377Z,101083.31
2017-10-15T20:48:09.773Z,101083.19
2017-10-15T20:50:37.160Z,101089.27
2017-10-15T20:53:04.562Z,101084.22
2017-10-15T20:55:31.953Z,101083.88
2017-10-15T20:57:59.342Z,101087.50
2017-10-15T21:00:26.769Z,101085.84
2017-10-15T21:02:54.158Z,101091.39
2017-10-15T21:05:21.554Z,101089.41
2017-10-15T21:07:48.959Z,101092.89
2017-10-15T21:10:16.346Z,101088.26
2017-10-15T21:12:43.739Z,101090.87
2017-10-15T21:15:11.243Z,101088.53
2017-10-15T21:17:38.626Z,101092.30
2017-10-15T21:20:06.021Z,101096.34
2017-10-15T21:22:33.453Z,101091.88
2017-10-15T21:25:00.846Z,101094.70
2017-10-15T21:27:28.233Z,101102.58
2017-10-15T21:29:55.641Z,101101.91
2017-10-15T21:32:23.033Z,101101.03
2017-10-15T21:34:50.422Z,101102.80
2017-10-15T21:37:17.925Z,101109.31
2017-10-15T21:39:45.365Z,101107.16
2017-10-15T21:42:12.737Z,101103.54
2017-10-15T21:44:40.239Z,101102.12
2017-10-15T21:47:07.630Z,101102.58
2017-10-15T21:49:35.026Z,101100.50
2017-10-15T21:52:02.442Z,101098.93
2017-10-15T21:54:29.838Z,101111.14
2017-10-15T21:56:57.226Z,101105.72
2017-10-15T21:59:24.637Z,101110.27
2017-10-15T22:01:52.031Z,101105.80
2017-10-15T22:04:19.421Z,101094.84
2017-10-15T22:06:46.847Z,101100.77
2017-10-15T22:09:14.239Z,101110.86
2017-10-15T22:11:41.630Z,101111.48
2017-10-15T22:14:09.051Z,101105.22
2017-10-15T22:16:36.449Z,101101.40
2017-10-15T22:19:03.839Z,101101.86
2017-10-15T22:21:36.931Z,101103.49
2017-10-15T22:24:04.318Z,101104.21
2017-10-15T22:26:31.706Z,101106.14
2017-10-15T22:28:59.115Z,101096.80
2017-10-15T22:31:26.505Z,101103.53
2017-10-15T22:33:53.908Z,101098.27
2017-10-15T22:36:21.334Z,101095.95
2017-10-15T22:38:48.725Z,101098.92
2017-10-15T22:41:16.114Z,101096.19
2017-10-15T22:43:43.539Z,101087.28
2017-10-15T22:46:10.926Z,101091.69
2017-10-15T22:48:38.318Z,101090.97
2017-10-15T22:51:05.718Z,101091.22
2017-10-15T22:53:33.109Z,101091.67
2017-10-15T22:56:00.506Z,101091.70
2017-10-15T22:58:27.921Z,101092.89
2017-10-15T23:00:55.315Z,101097.50
2017-10-15T23:03:22.713Z,101083.84
2017-10-15T23:05:50.106Z,101089.44
2017-10-15T23:08:17.502Z,101091.41
2017-10-15T23:10:44.894Z,101091.62
2017-10-15T23:13:12.299Z,101077.80
2017-10-15T23:15:39.690Z,101076.78
2017-10-15T23:18:07.081Z,101074.34
2017-10-15T23:20:34.502Z,101068.54
2017-10-15T23:23:01.907Z,101077.69
2017-10-15T23:25:29.302Z,101075.20
2017-10-15T23:27:56.725Z,101092.09
2017-10-15T23:30:24.110Z,101085.99
2017-10-15T23:32:51.497Z,101091.07
2017-10-15T23:35:18.914Z,101093.38
2017-10-15T23:37:46.302Z,101091.02
2017-10-15T23:40:13.698Z,101094.92
2017-10-15T23:42:41.107Z,101102.22
2017-10-15T23:45:08.518Z,101098.24
2017-10-15T23:47:35.905Z,101101.37
2017-10-15T23:50:03.311Z,101092.39
2017-10-15T23:52:30.705Z,101094.92
2017-10-15T23:54:58.098Z,101091.10
2017-10-15T23:57:25.497Z,101091.47
2017-10-15T23:59:52.896Z,101091.47
